Time;durP1;ratioP1;P1;durP2;ratioP2;P2;SDS_P1;SDS_P2;PMS_P1;PMS_P2;Temp;Humidity;BMP_temperature;BMP_pressure;BME280_temperature;BME280_humidity;BME280_pressure;Samples;Min_cycle;Max_cycle;Signal;HPM_P1;HPM_P2
2023/08/16 00:02:20;;;;;;;0.30;0.30;;;;;;;22.37;76.62;101207.91;5064173;28;20604;-61
2023/08/16 00:04:45;;;;;;;2.00;0.70;;;;;;;22.40;76.43;101207.06;5046362;28;20040;-60
2023/08/16 00:07:11;;;;;;;2.58;0.50;;;;;;;22.35;76.36;101206.78;5055733;28;20032;-59
2023/08/16 00:09:38;;;;;;;0.32;0.32;;;;;;;22.30;76.38;101218.22;5064369;28;20379;-59
2023/08/16 00:12:04;;;;;;;0.47;0.38;;;;;;;22.28;76.81;101215.13;5057916;28;20024;-59
2023/08/16 00:14:29;;;;;;;1.58;0.40;;;;;;;22.18;76.79;101218.88;5055893;28;20049;-60
2023/08/16 00:16:55;;;;;;;1.05;0.32;;;;;;;22.24;76.58;101219.94;5050107;28;20060;-59
2023/08/16 00:19:20;;;;;;;0.50;0.40;;;;;;;22.12;76.81;101212.31;5069854;28;20032;-59
2023/08/16 00:21:46;;;;;;;0.93;0.20;;;;;;;22.08;76.99;101225.31;5066725;28;20033;-58
2023/08/16 00:24:11;;;;;;;0.50;0.40;;;;;;;22.01;77.10;101220.72;5052405;28;20032;-59
2023/08/16 00:26:39;;;;;;;0.40;0.40;;;;;;;21.97;77.79;101211.78;5066541;28;20033;-59
2023/08/16 00:29:05;;;;;;;0.73;0.38;;;;;;;21.94;77.03;101217.31;5070177;28;20051;-59
2023/08/16 00:31:30;;;;;;;1.13;0.40;;;;;;;21.90;77.54;101216.63;5065362;28;20639;-59
2023/08/16 00:33:56;;;;;;;0.40;0.32;;;;;;;21.85;77.70;101217.88;5050828;28;20097;-59
2023/08/16 00:36:22;;;;;;;1.35;0.40;;;;;;;21.84;77.86;101219.06;5069511;28;20471;-59
2023/08/16 00:38:48;;;;;;;0.40;0.30;;;;;;;21.70;78.04;101216.50;5045112;28;20040;-59
2023/08/16 00:41:13;;;;;;;0.30;0.30;;;;;;;21.69;78.76;101223.19;5058602;28;20137;-60
2023/08/16 00:43:39;;;;;;;0.55;0.30;;;;;;;21.60;79.20;101217.47;5065791;28;20098;-62
2023/08/16 00:46:09;;;;;;;2.55;0.50;;;;;;;21.60;79.14;101220.22;5062895;28;20040;-56
2023/08/16 00:48:37;;;;;;;0.40;0.40;;;;;;;21.52;79.42;101214.06;5048368;28;20061;-59
2023/08/16 00:51:03;;;;;;;1.25;0.40;;;;;;;21.53;79.29;101210.13;5064821;28;20166;-59
2023/08/16 00:53:30;;;;;;;0.45;0.32;;;;;;;21.56;78.79;101214.78;5049716;28;20032;-59
2023/08/16 00:55:59;;;;;;;0.30;0.30;;;;;;;21.45;79.01;101214.16;5064025;28;20060;-59
2023/08/16 00:58:27;;;;;;;0.68;0.28;;;;;;;21.49;79.44;101216.84;5051403;28;20039;-59
2023/08/16 01:00:53;;;;;;;0.47;0.32;;;;;;;21.35;79.26;101211.59;5047071;28;20031;-59
2023/08/16 01:03:18;;;;;;;2.25;0.40;;;;;;;21.36;79.96;101213.94;5049073;28;20048;-57
2023/08/16 01:05:44;;;;;;;0.77;0.50;;;;;;;21.22;80.15;101211.38;5046628;28;20031;-59
2023/08/16 01:08:10;;;;;;;0.55;0.25;;;;;;;21.23;80.03;101212.94;5068430;28;20032;-59
2023/08/16 01:10:42;;;;;;;0.55;0.40;;;;;;;21.12;80.54;101212.31;5048512;28;20039;-59
2023/08/16 01:13:13;;;;;;;3.88;0.32;;;;;;;21.19;80.47;101212.22;5065245;28;20028;-59
2023/08/16 01:15:46;;;;;;;0.68;0.35;;;;;;;21.21;80.05;101211.81;5049718;28;20028;-58
2023/08/16 01:18:12;;;;;;;0.45;0.30;;;;;;;21.16;80.35;101223.22;5062359;28;20029;-59
2023/08/16 01:20:38;;;;;;;0.70;0.60;;;;;;;21.19;80.54;101220.44;5063259;28;20029;-58
2023/08/16 01:23:08;;;;;;;1.10;0.52;;;;;;;21.11;80.32;101213.50;5066969;28;20028;-58
2023/08/16 01:25:53;;;;;;;2.70;0.68;;;;;;;21.09;80.67;101223.31;5067945;28;20399;-61
2023/08/16 01:28:20;;;;;;;1.85;0.43;;;;;;;21.05;81.28;101217.88;5042820;28;20037;-60
2023/08/16 01:30:46;;;;;;;0.30;0.30;;;;;;;21.03;81.59;101223.00;5048859;28;20082;-61
2023/08/16 01:33:13;;;;;;;0.30;0.30;;;;;;;21.00;81.86;101228.50;5047367;28;20044;-60
2023/08/16 01:35:39;;;;;;;0.38;0.35;;;;;;;20.96;81.50;101225.03;5067946;28;20025;-60
2023/08/16 01:38:07;;;;;;;1.25;0.47;;;;;;;20.95;81.38;101224.25;5062460;28;20032;-60
2023/08/16 01:40:41;;;;;;;0.60;0.47;;;;;;;20.92;82.00;101229.78;5068602;28;20043;-60
2023/08/16 01:43:10;;;;;;;0.63;0.38;;;;;;;20.81;81.96;101223.66;5045851;28;20032;-60
2023/08/16 01:45:35;;;;;;;3.17;0.57;;;;;;;20.83;81.89;101226.78;5042683;28;20414;-60
2023/08/16 01:48:03;;;;;;;1.42;0.52;;;;;;;20.85;81.83;101236.09;5049859;28;20025;-59
2023/08/16 01:50:29;;;;;;;0.73;0.38;;;;;;;20.78;81.91;101235.41;5065908;28;20410;-60
2023/08/16 01:52:55;;;;;;;2.30;0.60;;;;;;;20.71;81.97;101228.09;5048092;28;20028;-60
2023/08/16 01:55:22;;;;;;;4.05;0.60;;;;;;;20.70;82.63;101232.00;5046943;28;20094;-59
2023/08/16 01:57:47;;;;;;;0.80;0.70;;;;;;;20.71;82.38;101230.03;5066092;28;20478;-60
2023/08/16 02:00:16;;;;;;;0.50;0.40;;;;;;;20.73;82.58;101233.16;5056183;28;20111;-60
2023/08/16 02:02:42;;;;;;;2.10;0.50;;;;;;;20.64;82.53;101226.19;5066872;28;20040;-60
2023/08/16 02:05:28;;;;;;;1.23;0.95;;;;;;;20.57;83.11;101237.25;5048574;28;20036;-60
2023/08/16 02:07:53;;;;;;;0.60;0.45;;;;;;;20.61;82.53;101237.19;4964823;28;20658;-57
2023/08/16 02:10:19;;;;;;;0.88;0.40;;;;;;;20.55;83.01;101233.34;4976075;28;20059;-60
2023/08/16 02:12:46;;;;;;;2.30;0.35;;;;;;;20.42;83.65;101237.81;4962113;28;20043;-59
2023/08/16 02:15:11;;;;;;;0.60;0.25;;;;;;;20.35;84.15;101246.06;4947291;28;20439;-60
2023/08/16 02:17:37;;;;;;;0.30;0.30;;;;;;;20.46;83.57;101241.28;4979439;28;20547;-59
2023/08/16 02:20:05;;;;;;;0.95;0.60;;;;;;;20.40;83.76;101242.91;4967364;28;20039;-60
2023/08/16 02:22:31;;;;;;;2.65;0.73;;;;;;;20.37;84.33;101249.97;4964388;28;20462;-60
2023/08/16 02:24:57;;;;;;;0.77;0.73;;;;;;;20.39;84.20;101246.81;4974886;28;20050;-61
2023/08/16 02:27:22;;;;;;;1.98;0.60;;;;;;;20.42;84.26;101257.72;4961177;28;20417;-60
2023/08/16 02:29:48;;;;;;;1.27;0.57;;;;;;;20.45;83.92;101245.97;4962692;28;20039;-60
2023/08/16 02:32:13;;;;;;;1.05;0.40;;;;;;;20.33;84.08;101248.44;4974423;28;20045;-59
2023/08/16 02:34:38;;;;;;;0.80;0.50;;;;;;;20.38;84.23;101245.25;4987583;28;20078;-59
2023/08/16 02:37:05;;;;;;;0.45;0.40;;;;;;;20.40;84.64;101256.59;4965435;28;20414;-61
2023/08/16 02:39:32;;;;;;;0.50;0.50;;;;;;;20.36;84.31;101255.84;4969302;28;20074;-58
2023/08/16 02:41:58;;;;;;;2.08;0.93;;;;;;;20.33;84.37;101256.63;4965925;28;20473;-60
2023/08/16 02:44:23;;;;;;;2.33;0.80;;;;;;;20.34;85.02;101263.69;4997748;28;20135;-60
2023/08/16 02:46:51;;;;;;;0.55;0.55;;;;;;;20.33;85.21;101262.91;5061199;28;20120;-60
2023/08/16 02:49:16;;;;;;;2.72;0.57;;;;;;;20.29;85.03;101250.41;5052261;28;20468;-60
2023/08/16 02:51:42;;;;;;;1.38;0.70;;;;;;;20.22;85.15;101258.69;5065525;28;20032;-61
2023/08/16 02:54:07;;;;;;;2.72;1.00;;;;;;;20.21;85.53;101248.97;5053262;28;20391;-60
2023/08/16 02:56:33;;;;;;;1.58;0.60;;;;;;;20.28;85.27;101248.88;5049959;28;20391;-60
2023/08/16 02:58:59;;;;;;;0.57;0.43;;;;;;;20.26;85.17;101251.25;5068509;28;20689;-59
2023/08/16 03:01:25;;;;;;;2.30;0.50;;;;;;;20.10;85.85;101246.28;5068828;28;20066;-59
2023/08/16 03:03:51;;;;;;;3.88;0.90;;;;;;;20.11;86.51;101252.53;5072265;28;20395;-59
2023/08/16 03:06:16;;;;;;;0.70;0.63;;;;;;;20.09;86.20;101254.91;5070427;28;20028;-60
2023/08/16 03:08:42;;;;;;;1.45;0.60;;;;;;;20.08;86.54;101258.78;5045717;28;20020;-60
2023/08/16 03:11:07;;;;;;;3.03;0.95;;;;;;;20.06;86.76;101266.63;5047232;28;20039;-60
2023/08/16 03:13:35;;;;;;;0.60;0.40;;;;;;;20.11;86.19;101268.94;5039365;28;20044;-59
2023/08/16 03:16:00;;;;;;;0.90;0.70;;;;;;;20.11;85.86;101261.50;5029956;28;20040;-60
2023/08/16 03:18:26;;;;;;;0.98;0.50;;;;;;;20.13;86.12;101261.13;5056024;28;20392;-59
2023/08/16 03:21:12;;;;;;;0.75;0.63;;;;;;;20.14;85.73;101270.84;5051855;28;20112;-59
2023/08/16 03:23:37;;;;;;;2.92;0.75;;;;;;;20.15;85.86;101267.72;5008628;28;20100;-60
2023/08/16 03:26:03;;;;;;;2.35;0.70;;;;;;;20.10;86.10;101272.84;4989371;28;20537;-59
2023/08/16 03:28:28;;;;;;;1.55;0.70;;;;;;;20.08;86.24;101267.00;5000151;28;20049;-60
2023/08/16 03:30:54;;;;;;;1.42;0.55;;;;;;;19.97;86.11;101264.38;4982783;28;20045;-61
2023/08/16 03:33:21;;;;;;;1.20;0.73;;;;;;;19.95;86.75;101269.47;4984426;28;20508;-59
2023/08/16 03:35:50;;;;;;;1.45;1.00;;;;;;;19.87;87.34;101259.75;4987725;28;20104;-59
2023/08/16 03:38:18;;;;;;;2.45;1.40;;;;;;;19.89;87.89;101279.28;4988443;28;20030;-60
2023/08/16 03:40:43;;;;;;;0.70;0.40;;;;;;;19.88;87.68;101271.47;5002420;28;20121;-59
2023/08/16 03:43:09;;;;;;;2.38;0.93;;;;;;;19.86;87.59;101265.63;5006458;28;20567;-60
2023/08/16 03:45:36;;;;;;;2.70;0.98;;;;;;;19.91;87.47;101273.41;4987407;28;20041;-60
2023/08/16 03:48:02;;;;;;;0.68;0.60;;;;;;;19.87;87.95;101270.69;5034060;22;20060;-65
2023/08/16 03:50:30;;;;;;;4.03;0.55;;;;;;;19.88;88.18;101276.94;5020284;28;20017;-65
2023/08/16 03:52:57;;;;;;;1.05;0.63;;;;;;;19.90;87.79;101283.56;5021169;28;20067;-63
2023/08/16 03:55:23;;;;;;;1.08;0.80;;;;;;;19.88;88.07;101282.41;5017939;28;20038;-65
2023/08/16 03:57:48;;;;;;;0.65;0.60;;;;;;;19.86;87.83;101290.25;5017089;28;20029;-65
2023/08/16 04:00:15;;;;;;;5.32;0.70;;;;;;;19.89;87.97;101289.44;5041341;28;20033;-64
2023/08/16 04:02:41;;;;;;;1.92;0.77;;;;;;;19.86;87.64;101292.97;5039116;28;20496;-66
2023/08/16 04:05:12;;;;;;;0.70;0.55;;;;;;;19.87;87.69;101300.78;5019634;28;20375;-65
2023/08/16 04:07:38;;;;;;;0.80;0.60;;;;;;;19.82;87.97;101301.22;5021645;28;20493;-65
2023/08/16 04:10:05;;;;;;;0.88;0.65;;;;;;;19.87;87.76;101300.00;5027465;28;20120;-65
2023/08/16 04:12:34;;;;;;;3.45;1.00;;;;;;;19.84;87.97;101309.00;5022094;28;20021;-65
2023/08/16 04:14:59;;;;;;;2.95;1.13;;;;;;;19.77;88.24;101305.13;5039562;28;20115;-65
2023/08/16 04:17:25;;;;;;;1.52;0.70;;;;;;;19.73;88.80;101304.38;5042002;28;20112;-66
2023/08/16 04:19:50;;;;;;;1.75;1.10;;;;;;;19.66;89.10;101296.25;5050619;28;20035;-65
2023/08/16 04:22:17;;;;;;;1.00;0.80;;;;;;;19.59;89.33;101287.28;5029028;28;20151;-65
2023/08/16 04:24:42;;;;;;;2.33;0.70;;;;;;;19.65;89.14;101296.63;5043190;28;20033;-65
2023/08/16 04:27:09;;;;;;;1.60;0.95;;;;;;;19.63;89.45;101290.78;5024662;28;20052;-65
2023/08/16 04:29:34;;;;;;;1.05;0.95;;;;;;;19.69;89.17;101298.16;5031396;28;20067;-65
2023/08/16 04:32:00;;;;;;;1.38;0.82;;;;;;;19.63;89.78;101307.16;5031938;28;20728;-66
2023/08/16 04:34:26;;;;;;;5.82;0.95;;;;;;;19.59;89.96;101312.66;5025148;28;20040;-65
2023/08/16 04:36:51;;;;;;;2.53;0.95;;;;;;;19.50;90.68;101315.06;5025610;28;20040;-65
2023/08/16 04:39:18;;;;;;;0.82;0.80;;;;;;;19.48;91.42;101325.63;5014502;28;20433;-65
2023/08/16 04:41:44;;;;;;;5.53;1.00;;;;;;;19.59;91.08;101328.28;5012756;28;20047;-66
2023/08/16 04:44:09;;;;;;;3.15;1.17;;;;;;;19.58;90.59;101333.00;5042963;28;20116;-65
2023/08/16 04:46:35;;;;;;;3.30;1.23;;;;;;;19.48;91.28;101342.00;5035649;28;20785;-65
2023/08/16 04:49:00;;;;;;;1.58;1.02;;;;;;;19.57;91.35;101339.63;5018579;28;20036;-66
2023/08/16 04:51:26;;;;;;;1.98;1.38;;;;;;;19.60;91.10;101338.84;5028224;28;20026;-66
2023/08/16 04:53:52;;;;;;;2.15;1.30;;;;;;;19.66;90.88;101331.00;5029295;28;20025;-65
2023/08/16 04:56:18;;;;;;;1.65;1.25;;;;;;;19.71;90.73;101344.22;5027638;28;20048;-65
2023/08/16 04:58:44;;;;;;;7.68;1.60;;;;;;;19.65;91.41;101343.88;5021011;28;20061;-66
2023/08/16 05:01:09;;;;;;;1.27;1.00;;;;;;;19.66;91.71;101359.09;5024853;28;20191;-65
2023/08/16 05:03:38;;;;;;;3.53;1.42;;;;;;;19.67;91.92;101360.66;5026139;28;20113;-65
2023/08/16 05:06:04;;;;;;;1.92;1.27;;;;;;;19.72;92.02;101356.72;5025651;28;20041;-66
2023/08/16 05:08:30;;;;;;;1.80;1.10;;;;;;;19.68;92.23;101366.91;5044337;28;20022;-64
2023/08/16 05:10:57;;;;;;;2.97;1.40;;;;;;;19.73;92.60;101363.75;5026104;28;20049;-66
2023/08/16 05:13:23;;;;;;;1.65;1.15;;;;;;;19.76;92.65;101362.97;5031181;28;20033;-64
2023/08/16 05:15:49;;;;;;;1.80;1.10;;;;;;;19.79;92.66;101373.09;5027958;28;20123;-65
2023/08/16 05:18:15;;;;;;;2.10;1.40;;;;;;;19.83;92.98;101370.31;5021899;28;20115;-66
2023/08/16 05:20:42;;;;;;;2.63;1.50;;;;;;;19.85;92.78;101367.97;5028135;28;20066;-66
2023/08/16 05:23:07;;;;;;;2.05;1.30;;;;;;;19.92;92.87;101376.16;5037761;28;20032;-66
2023/08/16 05:25:33;;;;;;;4.03;1.98;;;;;;;19.89;92.88;101377.72;5026727;28;20477;-66
2023/08/16 05:27:58;;;;;;;3.85;1.67;;;;;;;19.99;92.95;101387.81;5047899;28;20428;-66
2023/08/16 05:30:27;;;;;;;4.13;1.50;;;;;;;19.94;92.01;101382.00;5049315;28;20646;-66
2023/08/16 05:32:56;;;;;;;2.45;1.40;;;;;;;19.91;92.83;101385.50;5046467;28;20036;-65
2023/08/16 05:35:22;;;;;;;1.67;1.13;;;;;;;20.00;92.90;101385.84;5020988;28;22130;-66
2023/08/16 05:37:48;;;;;;;3.05;1.23;;;;;;;20.09;93.02;101389.69;5037905;28;20033;-66
2023/08/16 05:40:14;;;;;;;2.20;1.50;;;;;;;20.18;93.48;101389.25;5027056;28;20083;-65
2023/08/16 05:42:39;;;;;;;3.45;1.63;;;;;;;20.38;93.19;101390.31;5017265;28;20064;-65
2023/08/16 05:45:05;;;;;;;5.03;1.67;;;;;;;20.57;92.27;101384.28;5046066;28;20040;-64
2023/08/16 05:47:31;;;;;;;3.25;1.55;;;;;;;20.70;91.91;101382.59;5039350;28;20483;-65
2023/08/16 05:49:57;;;;;;;2.80;1.88;;;;;;;20.87;91.85;101387.09;5029100;28;20021;-66
2023/08/16 05:52:23;;;;;;;3.20;1.70;;;;;;;21.14;91.20;101379.00;5038481;28;20604;-66
2023/08/16 05:54:48;;;;;;;1.83;1.20;;;;;;;21.47;90.33;101383.72;5042918;28;20039;-65
2023/08/16 05:57:14;;;;;;;2.33;1.90;;;;;;;21.64;89.15;101379.22;5048796;28;20037;-66
2023/08/16 05:59:40;;;;;;;4.32;2.50;;;;;;;21.75;88.09;101374.34;5046813;28;20128;-66
2023/08/16 06:02:06;;;;;;;3.15;1.38;;;;;;;21.83;87.29;101370.34;5044354;28;20649;-67
2023/08/16 06:04:33;;;;;;;6.32;1.38;;;;;;;21.98;86.78;101371.69;5042664;28;20029;-67
2023/08/16 06:06:59;;;;;;;4.70;1.80;;;;;;;22.10;86.13;101380.13;5039040;28;20033;-67
2023/08/16 06:09:24;;;;;;;3.17;1.40;;;;;;;22.31;85.21;101384.50;5047173;28;20393;-67
2023/08/16 06:11:50;;;;;;;1.10;0.88;;;;;;;22.38;85.33;101389.88;5049337;28;20029;-66
2023/08/16 06:14:15;;;;;;;2.58;1.00;;;;;;;22.41;85.01;101391.81;5032464;28;20025;-67
2023/08/16 06:16:40;;;;;;;2.00;0.90;;;;;;;22.33;83.88;101404.09;5047189;28;20055;-67
2023/08/16 06:19:06;;;;;;;0.95;0.77;;;;;;;22.23;82.32;101403.06;5044800;28;21049;-66
2023/08/16 06:21:32;;;;;;;0.68;0.60;;;;;;;22.05;83.12;101410.00;5044943;28;20025;-68
2023/08/16 06:23:57;;;;;;;2.78;0.70;;;;;;;22.08;82.80;101407.22;5019146;28;20116;-67
2023/08/16 06:26:23;;;;;;;1.02;0.50;;;;;;;22.11;82.76;101402.84;5037833;28;20106;-66
2023/08/16 06:28:48;;;;;;;6.32;1.10;;;;;;;22.12;82.41;101402.47;5049563;28;20489;-67
2023/08/16 06:31:15;;;;;;;4.18;0.80;;;;;;;22.06;83.83;101408.81;5043721;28;20544;-68
2023/08/16 06:33:41;;;;;;;0.77;0.57;;;;;;;22.09;83.59;101416.19;5042924;28;20052;-66
2023/08/16 06:36:06;;;;;;;3.17;1.40;;;;;;;22.05;83.21;101415.47;5022958;28;20037;-66
2023/08/16 06:38:32;;;;;;;2.30;1.08;;;;;;;22.01;82.76;101423.00;5049658;28;20021;-67
2023/08/16 06:40:57;;;;;;;0.75;0.68;;;;;;;22.00;84.01;101418.69;5050493;28;20378;-66
2023/08/16 06:43:23;;;;;;;0.70;0.60;;;;;;;22.08;84.28;101420.94;5045640;28;20112;-67
2023/08/16 06:45:49;;;;;;;2.95;0.75;;;;;;;22.10;83.81;101426.00;5044345;28;20037;-66
2023/08/16 06:48:14;;;;;;;1.23;0.80;;;;;;;22.14;83.81;101429.47;5049464;28;20494;-66
2023/08/16 06:50:40;;;;;;;0.60;0.60;;;;;;;22.20;83.71;101427.81;5025405;28;20037;-68
2023/08/16 06:53:05;;;;;;;0.57;0.57;;;;;;;22.29;83.08;101436.31;5037353;28;20112;-67
2023/08/16 06:55:31;;;;;;;2.00;0.82;;;;;;;22.30;82.38;101437.84;5042900;28;20436;-67
2023/08/16 06:57:56;;;;;;;3.53;1.13;;;;;;;22.24;82.79;101447.75;5046020;28;20489;-68
2023/08/16 07:00:22;;;;;;;1.60;0.50;;;;;;;22.25;82.64;101447.34;5023240;28;20021;-68
2023/08/16 07:02:48;;;;;;;0.77;0.60;;;;;;;22.36;82.18;101449.91;5033996;28;20025;-67
2023/08/16 07:05:13;;;;;;;1.20;0.77;;;;;;;22.48;80.92;101454.84;5029544;28;20416;-65
2023/08/16 07:07:39;;;;;;;1.33;0.70;;;;;;;22.72;80.45;101453.69;5040988;28;20028;-67
2023/08/16 07:10:06;;;;;;;5.15;0.95;;;;;;;23.01;79.63;101449.28;5031192;28;20481;-67
2023/08/16 07:12:32;;;;;;;2.97;0.90;;;;;;;23.34;78.04;101457.72;5044727;28;20056;-66
2023/08/16 07:14:57;;;;;;;1.95;0.75;;;;;;;23.59;76.83;101455.25;5024959;28;20017;-68
2023/08/16 07:17:22;;;;;;;2.83;0.50;;;;;;;23.88;75.45;101461.72;5047434;28;20048;-68
2023/08/16 07:19:49;;;;;;;1.75;0.43;;;;;;;24.11;72.96;101464.38;5053114;28;20047;-68
2023/08/16 07:22:15;;;;;;;0.65;0.60;;;;;;;24.29;71.11;101462.03;5048751;28;20032;-67
2023/08/16 07:24:40;;;;;;;1.35;0.50;;;;;;;24.42;70.57;101473.91;5048711;28;20560;-67
2023/08/16 07:27:06;;;;;;;2.33;0.40;;;;;;;24.56;70.14;101476.34;5025977;28;20037;-67
2023/08/16 07:29:31;;;;;;;0.50;0.50;;;;;;;24.68;69.14;101474.88;5031756;28;20032;-67
2023/08/16 07:31:57;;;;;;;1.27;0.60;;;;;;;24.83;69.13;101478.84;5043150;28;20025;-67
2023/08/16 07:34:22;;;;;;;1.20;0.50;;;;;;;25.06;69.44;101473.13;5030545;28;20389;-67
2023/08/16 07:36:48;;;;;;;0.20;0.20;;;;;;;25.28;70.36;101487.13;5041228;28;20104;-68
2023/08/16 07:39:13;;;;;;;2.50;0.60;;;;;;;25.47;69.58;101486.25;5042360;28;20044;-68
2023/08/16 07:41:39;;;;;;;1.58;0.60;;;;;;;25.62;67.98;101493.69;5047259;28;20039;-65
2023/08/16 07:44:04;;;;;;;1.85;0.60;;;;;;;25.86;66.21;101496.97;5045975;28;20091;-68
2023/08/16 07:46:30;;;;;;;1.88;0.50;;;;;;;25.99;65.37;101489.47;5023335;28;20557;-67
2023/08/16 07:48:55;;;;;;;1.50;0.73;;;;;;;26.02;64.41;101485.81;5047986;28;20029;-66
2023/08/16 07:51:21;;;;;;;0.85;0.50;;;;;;;26.08;62.05;101477.78;5041870;28;20041;-66
2023/08/16 07:54:07;;;;;;;1.42;0.40;;;;;;;26.07;63.38;101488.06;5021097;28;20025;-66
2023/08/16 07:56:32;;;;;;;0.75;0.55;;;;;;;26.07;62.47;101474.25;4950610;28;20047;-66
2023/08/16 07:58:57;;;;;;;1.75;0.55;;;;;;;26.18;63.77;101490.50;4947554;28;20044;-66
2023/08/16 08:01:26;;;;;;;0.75;0.50;;;;;;;26.14;62.17;101487.06;4949746;28;20047;-66
2023/08/16 08:03:52;;;;;;;2.40;0.50;;;;;;;26.09;62.42;101491.16;4929257;29;20162;-66
2023/08/16 08:06:18;;;;;;;1.95;0.45;;;;;;;26.07;63.54;101499.13;4915317;29;20564;-66
2023/08/16 08:08:43;;;;;;;0.90;0.60;;;;;;;26.04;62.97;101497.19;4951185;29;20051;-66
2023/08/16 08:11:09;;;;;;;1.35;0.73;;;;;;;26.20;62.41;101499.91;4917694;29;20030;-66
2023/08/16 08:13:34;;;;;;;0.30;0.30;;;;;;;26.28;60.79;101492.94;4953650;28;20104;-66
2023/08/16 08:16:00;;;;;;;0.50;0.35;;;;;;;26.48;60.53;101510.06;4936725;29;20059;-66
2023/08/16 08:18:26;;;;;;;2.72;0.30;;;;;;;26.69;61.53;101512.13;4948266;28;20099;-66
2023/08/16 08:20:51;;;;;;;1.00;0.60;;;;;;;26.60;58.65;101512.03;4951701;28;20513;-66
2023/08/16 08:23:17;;;;;;;3.80;0.85;;;;;;;26.36;59.33;101510.84;4953997;28;20061;-66
2023/08/16 08:25:44;;;;;;;2.33;0.52;;;;;;;25.76;58.21;101509.84;4949256;29;20031;-66
2023/08/16 08:28:10;;;;;;;0.50;0.28;;;;;;;25.49;58.56;101520.44;4950963;28;20071;-66
2023/08/16 08:30:56;;;;;;;0.40;0.38;;;;;;;25.60;61.30;101503.59;4948009;28;20102;-66
2023/08/16 08:33:21;;;;;;;1.35;0.90;;;;;;;25.73;61.55;101515.47;4944696;28;20057;-66
2023/08/16 08:35:48;;;;;;;0.38;0.30;;;;;;;25.97;62.99;101511.22;4989513;28;20030;-66
2023/08/16 08:38:13;;;;;;;1.60;0.50;;;;;;;26.34;62.08;101507.75;4990386;28;20057;-66
2023/08/16 08:40:39;;;;;;;1.77;0.50;;;;;;;26.64;59.76;101526.53;4996139;28;20115;-66
2023/08/16 08:43:06;;;;;;;0.55;0.50;;;;;;;26.58;58.16;101533.84;4990635;28;20045;-66
2023/08/16 08:45:32;;;;;;;0.80;0.50;;;;;;;26.54;58.84;101532.38;5006527;28;20050;-66
2023/08/16 08:47:59;;;;;;;0.57;0.40;;;;;;;26.46;60.05;101531.84;4999330;28;20038;-66
2023/08/16 08:50:27;;;;;;;0.85;0.50;;;;;;;26.36;59.47;101529.41;4987986;28;20035;-66
2023/08/16 08:53:15;;;;;;;1.17;0.50;;;;;;;26.32;59.19;101539.81;5000799;28;20128;-66
2023/08/16 08:55:44;;;;;;;0.50;0.47;;;;;;;26.39;59.61;101537.59;4913299;29;20054;-66
2023/08/16 08:58:10;;;;;;;0.40;0.40;;;;;;;26.31;57.57;101535.47;4893643;29;20561;-66
2023/08/16 09:00:37;;;;;;;3.33;0.50;;;;;;;26.10;57.39;101528.59;4920450;29;20064;-66
2023/08/16 09:03:07;;;;;;;1.42;0.57;;;;;;;26.02;59.14;101541.03;4907575;29;20043;-66
2023/08/16 09:05:33;;;;;;;3.67;0.35;;;;;;;26.05;59.48;101536.63;4909203;29;20099;-66
2023/08/16 09:08:00;;;;;;;0.88;0.47;;;;;;;26.07;60.16;101532.25;4913805;29;20048;-66
2023/08/16 09:10:26;;;;;;;1.67;0.90;;;;;;;25.78;57.20;101528.75;4931027;29;20038;-66
2023/08/16 09:12:52;;;;;;;1.20;0.40;;;;;;;25.32;58.75;101526.44;4932366;29;20047;-66
2023/08/16 09:15:18;;;;;;;0.98;0.40;;;;;;;25.06;60.37;101528.28;4936607;28;20178;-66
2023/08/16 09:17:45;;;;;;;0.47;0.35;;;;;;;25.51;63.19;101526.31;4928300;28;20488;-66
2023/08/16 09:20:12;;;;;;;1.30;0.50;;;;;;;25.92;63.33;101525.56;4936639;28;20048;-66
2023/08/16 09:22:37;;;;;;;0.98;0.43;;;;;;;26.11;62.64;101523.88;4948774;28;20039;-66
2023/08/16 09:25:05;;;;;;;0.50;0.50;;;;;;;26.29;61.51;101530.41;4939415;28;20062;-66
2023/08/16 09:27:31;;;;;;;0.75;0.40;;;;;;;26.47;60.28;101527.88;4950999;28;20046;-66
2023/08/16 09:29:57;;;;;;;0.93;0.57;;;;;;;26.51;58.72;101531.31;4931195;29;20027;-68
2023/08/16 09:32:26;;;;;;;4.88;0.40;;;;;;;26.40;57.69;101532.84;4978226;28;20045;-65
2023/08/16 09:34:53;;;;;;;2.50;0.40;;;;;;;26.73;57.66;101532.19;5036677;28;20094;-65
2023/08/16 09:37:19;;;;;;;1.20;0.43;;;;;;;26.84;56.59;101533.84;5039570;28;20033;-66
2023/08/16 09:39:54;;;;;;;1.73;0.70;;;;;;;27.04;56.46;101540.66;5046384;28;20044;-65
2023/08/16 09:42:20;;;;;;;0.40;0.20;;;;;;;27.18;56.40;101539.41;5021392;28;20037;-67
2023/08/16 09:44:47;;;;;;;0.30;0.30;;;;;;;27.17;55.88;101535.88;5044162;28;20039;-66
2023/08/16 09:47:16;;;;;;;0.50;0.30;;;;;;;27.24;56.28;101529.31;5043409;22;20489;-60
2023/08/16 09:49:44;;;;;;;0.25;0.25;;;;;;;27.38;57.23;101532.41;4996260;28;20045;-58
2023/08/16 09:52:11;;;;;;;0.40;0.35;;;;;;;27.54;55.52;101528.69;5026980;28;20029;-58
2023/08/16 09:54:37;;;;;;;2.63;0.50;;;;;;;27.77;55.15;101527.47;5022479;28;20034;-57
2023/08/16 09:57:04;;;;;;;2.45;0.40;;;;;;;27.96;54.95;101527.16;5029605;28;20053;-59
2023/08/16 09:59:31;;;;;;;3.55;0.60;;;;;;;28.14;52.82;101518.94;5013092;28;20022;-60
2023/08/16 10:02:00;;;;;;;0.60;0.40;;;;;;;28.45;54.03;101518.91;5016991;28;20037;-60
2023/08/16 10:04:27;;;;;;;4.03;0.43;;;;;;;28.72;52.94;101527.34;5001633;28;20041;-60
2023/08/16 10:06:53;;;;;;;0.95;0.50;;;;;;;28.91;52.48;101528.94;5001379;28;20030;-57
2023/08/16 10:09:19;;;;;;;0.43;0.32;;;;;;;28.98;51.81;101525.84;5020625;28;20034;-59
2023/08/16 10:11:45;;;;;;;2.22;0.63;;;;;;;29.00;51.97;101519.84;5020485;28;20528;-60
2023/08/16 10:14:12;;;;;;;0.95;0.40;;;;;;;29.24;51.92;101512.50;5019296;28;20459;-60
2023/08/16 10:16:38;;;;;;;1.00;0.40;;;;;;;29.34;51.76;101523.16;5015165;28;20045;-60
2023/08/16 10:19:07;;;;;;;0.70;0.60;;;;;;;29.66;51.82;101518.19;5021427;28;20108;-60
2023/08/16 10:21:39;;;;;;;3.65;1.35;;;;;;;29.74;49.94;101516.66;5023062;28;20024;-60
2023/08/16 10:24:08;;;;;;;0.43;0.30;;;;;;;29.70;50.20;101508.47;5014903;28;20568;-60
2023/08/16 10:26:54;;;;;;;0.55;0.32;;;;;;;29.78;51.34;101512.50;5013082;28;20035;-60
2023/08/16 10:29:25;;;;;;;0.68;0.60;;;;;;;29.63;49.59;101499.69;4964497;28;20097;-60
2023/08/16 10:31:52;;;;;;;1.30;0.40;;;;;;;29.60;48.16;101500.63;4955276;28;20046;-60
2023/08/16 10:34:20;;;;;;;0.47;0.40;;;;;;;29.61;49.43;101502.94;4948388;28;20039;-60
2023/08/16 10:36:47;;;;;;;0.30;0.30;;;;;;;29.74;49.30;101503.53;4963830;28;20053;-60
2023/08/16 10:39:22;;;;;;;0.93;0.50;;;;;;;29.95;48.26;101499.78;4961802;28;20039;-60
2023/08/16 10:41:50;;;;;;;0.45;0.40;;;;;;;30.02;48.28;101499.44;4940182;28;20045;-58
2023/08/16 10:44:23;;;;;;;1.83;0.50;;;;;;;29.94;47.36;101497.47;4955194;28;20031;-60
2023/08/16 10:46:50;;;;;;;0.40;0.32;;;;;;;29.95;47.99;101497.00;4961859;28;20065;-60
2023/08/16 10:49:16;;;;;;;1.15;0.22;;;;;;;29.89;47.47;101496.09;4958427;28;20035;-60
2023/08/16 10:51:51;;;;;;;2.10;0.40;;;;;;;30.04;46.33;101499.00;4966039;28;20521;-59
2023/08/16 10:54:17;;;;;;;0.50;0.28;;;;;;;30.00;45.40;101495.63;4964373;28;20082;-60
2023/08/16 10:56:44;;;;;;;1.23;0.30;;;;;;;29.88;46.41;101497.34;4970674;28;20045;-59
2023/08/16 10:59:11;;;;;;;0.40;0.30;;;;;;;29.91;45.21;101488.06;4961404;28;20051;-60
2023/08/16 11:01:45;;;;;;;3.15;0.30;;;;;;;29.97;46.92;101493.75;4962034;28;20444;-60
2023/08/16 11:04:11;;;;;;;0.65;0.30;;;;;;;29.98;44.60;101498.09;4967143;28;20054;-60
2023/08/16 11:06:39;;;;;;;0.85;0.35;;;;;;;30.17;45.08;101494.78;5001877;28;20033;-60
2023/08/16 11:09:05;;;;;;;0.68;0.28;;;;;;;30.48;45.34;101496.50;5028585;28;20108;-60
2023/08/16 11:11:30;;;;;;;1.13;0.20;;;;;;;30.52;44.23;101506.22;5022842;28;20044;-60
2023/08/16 11:13:59;;;;;;;1.33;0.20;;;;;;;30.56;43.53;101504.06;5021570;28;20104;-60
2023/08/16 11:16:25;;;;;;;1.85;0.40;;;;;;;30.53;44.02;101501.41;5008206;28;20140;-60
2023/08/16 11:18:50;;;;;;;0.30;0.17;;;;;;;30.78;42.00;101503.75;5027502;28;20108;-60
2023/08/16 11:21:17;;;;;;;0.30;0.20;;;;;;;30.93;43.57;101512.97;5025251;28;20042;-60
2023/08/16 11:23:42;;;;;;;1.25;0.20;;;;;;;31.20;43.42;101512.00;5030392;28;20667;-60